Time;durP1;ratioP1;P1;durP2;ratioP2;P2;SDS_P1;SDS_P2;PMS_P1;PMS_P2;Temp;Humidity;BMP_temperature;BMP_pressure;BME280_temperature;BME280_humidity;BME280_pressure;Samples;Min_cycle;Max_cycle;Signal;HPM_P1;HPM_P2
2021/10/25 00:00:14;;;;;;;;;40.00;34.25;;;;;16.57;83.35;101531.19;5059822;28;45517;-81
2021/10/25 00:02:39;;;;;;;;;33.75;32.00;;;;;16.35;82.90;101532.88;5059688;28;45442;-81
2021/10/25 00:05:06;;;;;;;;;37.25;33.50;;;;;16.53;82.70;101540.38;5041866;28;45473;-81
2021/10/25 00:07:32;;;;;;;;;36.75;30.75;;;;;16.48;82.89;101529.25;5041968;28;45464;-81
2021/10/25 00:09:57;;;;;;;;;38.00;33.00;;;;;16.51;82.62;101529.81;5058321;28;45443;-81
2021/10/25 00:12:23;;;;;;;;;38.75;34.00;;;;;16.54;83.04;101537.59;5039574;28;46023;-81
2021/10/25 00:14:49;;;;;;;;;38.50;31.75;;;;;16.54;83.32;101528.75;5054877;28;45165;-81
2021/10/25 00:17:14;;;;;;;;;37.75;34.00;;;;;16.46;83.58;101522.22;5059804;28;45237;-81
2021/10/25 00:19:40;;;;;;;;;42.00;33.00;;;;;16.35;84.05;101532.03;5041517;28;45494;-81
2021/10/25 00:22:05;;;;;;;;;42.25;33.50;;;;;16.33;84.34;101529.47;5059478;28;45489;-81
2021/10/25 00:24:30;;;;;;;;;37.50;33.50;;;;;16.35;83.92;101522.22;5059708;28;45233;-81
2021/10/25 00:26:56;;;;;;;;;42.25;32.50;;;;;16.42;83.89;101528.75;5061044;28;45174;-81
2021/10/25 00:29:22;;;;;;;;;41.00;31.25;;;;;16.48;83.60;101521.25;5063962;28;45528;-81
2021/10/25 00:31:47;;;;;;;;;36.00;31.25;;;;;16.51;83.10;101519.16;5059629;28;45359;-81
2021/10/25 00:34:14;;;;;;;;;34.50;31.00;;;;;16.46;83.31;101521.38;5041302;28;45529;-81
2021/10/25 00:36:40;;;;;;;;;34.25;31.25;;;;;16.44;83.17;101517.97;5059697;28;45407;-81
2021/10/25 00:39:06;;;;;;;;;30.00;25.50;;;;;16.29;83.73;101519.19;5058964;28;45373;-81
2021/10/25 00:41:31;;;;;;;;;41.75;30.50;;;;;16.23;83.74;101515.19;5059736;28;45601;-81
2021/10/25 00:43:57;;;;;;;;;33.00;28.00;;;;;16.17;83.67;101517.47;5041313;28;45376;-81
2021/10/25 00:46:23;;;;;;;;;35.25;30.50;;;;;16.11;84.23;101510.84;5059856;28;45257;-81
2021/10/25 00:48:49;;;;;;;;;35.50;29.25;;;;;16.17;83.67;101506.81;5062594;28;45142;-81
2021/10/25 00:51:15;;;;;;;;;39.25;34.00;;;;;16.01;84.81;101496.53;5046199;28;47948;-80
2021/10/25 00:53:41;;;;;;;;;36.00;30.50;;;;;16.12;84.35;101503.66;5063799;28;45420;-80
2021/10/25 00:56:08;;;;;;;;;32.75;31.00;;;;;16.17;83.77;101498.81;5070673;28;45267;-81
2021/10/25 00:58:34;;;;;;;;;34.75;28.25;;;;;16.30;83.23;101495.06;5067569;28;45367;-81
2021/10/25 01:00:59;;;;;;;;;29.00;24.00;;;;;16.16;83.44;101495.31;5044845;28;48431;-81
2021/10/25 01:03:25;;;;;;;;;32.75;30.00;;;;;16.13;84.17;101500.03;5044995;28;45521;-81
2021/10/25 01:05:52;;;;;;;;;41.75;31.75;;;;;16.13;84.04;101500.88;5044921;28;45448;-81
2021/10/25 01:08:17;;;;;;;;;37.50;28.75;;;;;16.20;83.66;101506.59;5045002;28;45252;-81
2021/10/25 01:10:44;;;;;;;;;31.25;28.25;;;;;16.23;83.53;101517.00;5062943;28;45303;-81
2021/10/25 01:13:11;;;;;;;;;32.50;28.25;;;;;16.33;83.61;101520.63;5068706;28;45174;-81
2021/10/25 01:15:36;;;;;;;;;26.75;20.25;;;;;16.38;83.01;101521.13;5062995;28;45220;-81
2021/10/25 01:18:02;;;;;;;;;30.75;27.75;;;;;16.50;82.22;101521.94;5062376;28;45265;-81
2021/10/25 01:20:29;;;;;;;;;35.25;29.50;;;;;16.46;82.32;101510.69;5062620;28;45439;-80
2021/10/25 01:22:55;;;;;;;;;23.00;22.50;;;;;16.49;81.90;101518.44;5062489;28;45359;-81
2021/10/25 01:25:22;;;;;;;;;38.75;30.00;;;;;16.45;81.78;101517.00;5044535;28;45381;-81
2021/10/25 01:27:48;;;;;;;;;30.25;26.00;;;;;16.55;81.91;101517.13;5050059;28;45267;-81
2021/10/25 01:30:15;;;;;;;;;32.25;23.00;;;;;16.63;81.70;101525.38;5061037;28;49175;-80
2021/10/25 01:32:46;;;;;;;;;31.25;27.25;;;;;16.74;80.98;101522.69;5044219;28;45935;-80
2021/10/25 01:35:12;;;;;;;;;28.00;24.75;;;;;16.77;80.56;101517.09;5045088;28;45368;-80
2021/10/25 01:37:37;;;;;;;;;29.75;27.00;;;;;16.84;80.21;101512.97;5043737;28;45396;-81
2021/10/25 01:40:04;;;;;;;;;31.75;30.00;;;;;16.92;79.77;101517.69;5062340;28;45332;-80
2021/10/25 01:42:30;;;;;;;;;34.00;28.50;;;;;16.90;79.85;101507.13;5062269;28;45225;-80
2021/10/25 01:44:55;;;;;;;;;33.25;28.00;;;;;16.93;79.63;101501.56;5045093;28;45601;-80
2021/10/25 01:47:21;;;;;;;;;31.25;25.50;;;;;16.93;79.21;101487.38;5062303;28;45480;-81
2021/10/25 01:49:46;;;;;;;;;28.50;24.75;;;;;16.98;79.26;101494.00;5044059;28;46954;-80
2021/10/25 01:52:14;;;;;;;;;30.50;28.25;;;;;17.07;78.94;101497.72;5062026;28;45493;-80
2021/10/25 01:54:40;;;;;;;;;29.00;27.50;;;;;17.11;79.17;101496.50;5062163;28;45426;-80
2021/10/25 01:57:07;;;;;;;;;37.25;28.00;;;;;17.14;78.15;101489.09;5073879;28;45398;-80
2021/10/25 01:59:33;;;;;;;;;29.75;25.75;;;;;17.12;78.40;101501.69;5043387;28;46334;-80
2021/10/25 02:01:59;;;;;;;;;31.50;24.00;;;;;17.12;78.00;101498.19;5061787;28;45190;-80
2021/10/25 02:04:24;;;;;;;;;33.50;28.25;;;;;17.02;77.73;101487.44;5061955;28;45514;-80
2021/10/25 02:06:50;;;;;;;;;30.75;27.75;;;;;17.00;77.86;101491.22;5061703;28;45249;-80
2021/10/25 02:09:15;;;;;;;;;29.75;26.75;;;;;16.99;78.06;101484.19;5061615;28;45326;-80
2021/10/25 02:11:40;;;;;;;;;33.00;25.75;;;;;16.96;77.99;101479.09;5061511;28;45177;-80
2021/10/25 02:14:06;;;;;;;;;28.50;25.75;;;;;17.05;77.99;101489.84;5067833;28;45222;-80
2021/10/25 02:16:31;;;;;;;;;34.75;31.50;;;;;17.02;77.73;101484.78;5061571;28;45509;-80
2021/10/25 02:18:57;;;;;;;;;34.00;26.25;;;;;17.10;77.83;101481.47;5061429;28;46224;-80
2021/10/25 02:21:22;;;;;;;;;34.75;26.25;;;;;17.08;77.54;101476.25;5045189;28;45261;-80
2021/10/25 02:23:48;;;;;;;;;24.75;23.50;;;;;17.09;77.64;101477.09;5041615;28;45406;-80
2021/10/25 02:26:14;;;;;;;;;26.00;21.25;;;;;17.07;77.19;101477.22;5041185;28;45359;-80
2021/10/25 02:28:39;;;;;;;;;28.00;22.75;;;;;17.10;77.31;101468.97;5044980;28;47058;-80
2021/10/25 02:31:05;;;;;;;;;28.75;22.25;;;;;17.19;77.06;101465.53;5043128;28;45487;-80
2021/10/25 02:33:31;;;;;;;;;27.25;22.75;;;;;17.16;77.55;101465.78;5061414;28;45412;-80
2021/10/25 02:35:57;;;;;;;;;32.75;27.25;;;;;17.22;77.04;101483.09;5061423;28;45282;-80
2021/10/25 02:38:22;;;;;;;;;25.25;22.75;;;;;17.25;77.23;101469.50;5042864;28;48146;-80
2021/10/25 02:40:48;;;;;;;;;27.25;24.50;;;;;17.28;77.01;101471.94;5061361;28;45167;-80
2021/10/25 02:43:13;;;;;;;;;25.25;19.75;;;;;17.35;76.76;101459.75;5061513;28;45326;-80
2021/10/25 02:45:39;;;;;;;;;21.50;20.50;;;;;17.41;76.54;101469.06;5061245;28;45501;-80
2021/10/25 02:48:05;;;;;;;;;26.50;23.50;;;;;17.48;76.56;101462.25;5061071;28;46399;-80
2021/10/25 02:50:31;;;;;;;;;23.25;21.25;;;;;17.43;76.19;101459.09;5061390;28;45707;-80
2021/10/25 02:52:56;;;;;;;;;28.75;20.50;;;;;17.37;75.38;101446.28;5061157;28;45461;-80
2021/10/25 02:55:21;;;;;;;;;21.75;18.75;;;;;17.38;75.37;101439.97;5061841;28;45162;-80
2021/10/25 02:57:47;;;;;;;;;20.50;19.25;;;;;17.39;75.70;101445.16;5072038;28;46067;-80
2021/10/25 03:00:15;;;;;;;;;26.25;22.50;;;;;17.50;75.44;101445.09;5042872;28;45354;-80
2021/10/25 03:02:42;;;;;;;;;25.00;19.00;;;;;17.49;75.35;101450.56;5060995;28;45434;-80
2021/10/25 03:05:09;;;;;;;;;27.25;22.00;;;;;17.53;75.43;101439.50;5060857;28;45319;-81
2021/10/25 03:07:34;;;;;;;;;24.25;21.00;;;;;17.65;74.80;101440.31;5060603;28;46552;-80
2021/10/25 03:09:59;;;;;;;;;23.25;19.00;;;;;17.74;74.51;101450.19;5041804;28;45267;-80
2021/10/25 03:12:26;;;;;;;;;25.25;18.00;;;;;17.72;74.33;101438.78;5062505;28;45428;-80
2021/10/25 03:14:52;;;;;;;;;19.50;19.00;;;;;17.67;74.03;101437.47;5063957;28;45260;-80
2021/10/25 03:17:17;;;;;;;;;24.75;20.00;;;;;17.62;73.77;101437.00;5060297;28;46197;-80
2021/10/25 03:19:43;;;;;;;;;24.00;19.00;;;;;17.63;74.54;101444.06;5060697;28;45336;-80
2021/10/25 03:22:09;;;;;;;;;28.75;21.00;;;;;17.61;74.46;101441.50;5060583;28;45549;-80
2021/10/25 03:24:35;;;;;;;;;20.00;16.25;;;;;17.63;74.92;101447.59;5038965;28;45459;-80
2021/10/25 03:27:02;;;;;;;;;21.00;20.00;;;;;17.66;74.56;101449.16;5044044;28;45343;-80
2021/10/25 03:29:27;;;;;;;;;22.25;19.00;;;;;17.76;74.29;101447.38;5063196;28;45624;-80
2021/10/25 03:31:53;;;;;;;;;21.50;20.00;;;;;17.72;74.84;101444.13;5042504;28;45202;-80
2021/10/25 03:34:19;;;;;;;;;22.00;21.00;;;;;17.78;74.87;101443.59;5041962;28;45462;-81
2021/10/25 03:36:47;;;;;;;;;29.25;22.25;;;;;17.81;75.43;101439.81;5060422;28;45594;-80
2021/10/25 03:39:14;;;;;;;;;21.25;21.00;;;;;17.71;75.15;101446.94;5041695;28;46103;-80
2021/10/25 03:41:44;;;;;;;;;21.50;20.75;;;;;17.64;76.08;101438.59;5060603;28;45397;-80
2021/10/25 03:44:20;;;;;;;;;26.75;22.25;;;;;17.71;76.10;101450.44;5060386;28;45250;-80
2021/10/25 03:55:17;;;;;;;;;24.50;22.75;;;;;17.58;77.68;101439.09;5023271;28;45361;-80
2021/10/25 04:03:22;;;;;;;;;23.50;16.75;;;;;17.41;78.95;101445.88;5060325;28;45418;-80
2021/10/25 04:30:20;;;;;;;;;27.50;19.25;;;;;17.14;90.89;101457.06;5063180;28;45520;-81
2021/10/25 04:32:46;;;;;;;;;22.50;21.00;;;;;17.12;90.54;101437.66;5063214;28;45387;-80
2021/10/25 04:35:12;;;;;;;;;24.50;20.25;;;;;17.09;91.71;101445.94;5063506;28;45354;-80
2021/10/25 04:37:37;;;;;;;;;30.00;22.25;;;;;17.13;92.73;101449.16;5062938;28;45347;-80
2021/10/25 04:40:05;;;;;;;;;20.25;18.00;;;;;17.14;95.17;101448.19;5063196;28;46072;-80
2021/10/25 04:42:32;;;;;;;;;25.75;22.00;;;;;17.14;94.50;101440.19;5044942;28;45918;-80
2021/10/25 04:44:57;;;;;;;;;24.50;20.75;;;;;17.05;100.00;101452.50;5063297;28;47013;-80
2021/10/25 04:47:23;;;;;;;;;25.25;23.75;;;;;16.90;100.00;101453.78;5062622;28;45386;-81
2021/10/25 04:49:48;;;;;;;;;22.50;21.00;;;;;16.90;100.00;101445.75;5062938;28;45808;-80
2021/10/25 04:52:13;;;;;;;;;25.75;24.00;;;;;16.72;100.00;101434.78;5062345;28;45446;-80
2021/10/25 04:54:39;;;;;;;;;27.50;24.75;;;;;16.63;100.00;101435.56;5045118;28;45652;-80
2021/10/25 04:57:05;;;;;;;;;28.75;24.00;;;;;16.47;100.00;101440.41;5074365;28;45553;-81
2021/10/25 04:59:31;;;;;;;;;26.50;21.75;;;;;16.50;100.00;101452.63;5044712;28;46977;-81
2021/10/25 05:01:56;;;;;;;;;24.00;23.50;;;;;16.55;100.00;101453.13;5062736;28;45403;-81
2021/10/25 05:04:22;;;;;;;;;24.00;22.25;;;;;16.51;100.00;101454.31;5062832;28;45307;-81
2021/10/25 05:06:48;;;;;;;;;24.50;19.00;;;;;16.81;100.00;101446.53;5062631;28;45241;-81
2021/10/25 05:09:14;;;;;;;;;28.00;23.50;;;;;16.77;100.00;101443.25;5062735;28;45400;-82
2021/10/25 05:11:40;;;;;;;;;22.75;20.00;;;;;16.72;100.00;101440.13;5044440;28;45209;-82
2021/10/25 05:14:05;;;;;;;;;25.00;22.25;;;;;16.61;100.00;101433.94;5068084;28;45304;-81
2021/10/25 05:16:31;;;;;;;;;23.75;21.50;;;;;16.73;100.00;101440.97;5063022;28;45410;-81
2021/10/25 05:18:56;;;;;;;;;26.25;25.50;;;;;16.68;100.00;101441.34;5062813;28;46349;-82
2021/10/25 05:21:22;;;;;;;;;31.00;23.50;;;;;16.53;100.00;101455.06;5062275;28;45320;-82
2021/10/25 05:23:47;;;;;;;;;27.50;23.50;;;;;16.45;100.00;101445.00;5062490;28;45518;-81
2021/10/25 05:26:13;;;;;;;;;26.25;22.50;;;;;16.36;100.00;101443.94;5062313;28;45267;-81
2021/10/25 05:28:40;;;;;;;;;29.75;26.50;;;;;16.33;100.00;101441.50;5067976;28;45420;-81
2021/10/25 05:31:06;;;;;;;;;24.75;24.25;;;;;16.26;100.00;101439.47;5062279;28;45826;-81
2021/10/25 05:33:31;;;;;;;;;27.00;22.50;;;;;16.14;100.00;101443.09;5043908;28;45432;-81
2021/10/25 05:35:57;;;;;;;;;28.25;24.50;;;;;16.08;100.00;101429.31;5062726;28;45314;-81
2021/10/25 05:38:22;;;;;;;;;28.00;23.75;;;;;15.85;100.00;101427.59;5062119;28;45545;-81
2021/10/25 05:40:47;;;;;;;;;26.50;19.50;;;;;15.81;100.00;101422.66;5062399;28;45264;-81
2021/10/25 05:43:13;;;;;;;;;23.25;17.25;;;;;15.80;100.00;101407.66;5062539;28;45230;-81
2021/10/25 05:45:39;;;;;;;;;31.75;22.25;;;;;15.74;100.00;101416.97;5062089;28;45170;-81
2021/10/25 05:48:05;;;;;;;;;22.25;22.00;;;;;15.91;100.00;101415.66;5062308;28;45383;-81
2021/10/25 05:50:32;;;;;;;;;28.50;24.00;;;;;15.90;100.00;101422.78;5062404;28;45667;-81
2021/10/25 05:52:58;;;;;;;;;20.00;18.25;;;;;15.81;100.00;101417.34;5062537;28;45368;-81
2021/10/25 05:55:24;;;;;;;;;32.00;22.50;;;;;15.97;100.00;101423.13;5064035;28;45257;-80
2021/10/25 05:57:52;;;;;;;;;11.50;5.50;;;;;16.01;100.00;101427.25;5073335;28;45639;-81
2021/10/25 06:00:22;;;;;;;;;26.75;23.00;;;;;16.04;100.00;101421.69;5062221;28;45175;-81
2021/10/25 06:02:57;;;;;;;;;32.00;26.25;;;;;16.01;100.00;101421.94;5062243;28;45443;-81
2021/10/25 06:05:26;;;;;;;;;26.25;21.75;;;;;16.11;100.00;101419.38;5061959;28;45631;-81
2021/10/25 06:07:53;;;;;;;;;27.50;22.75;;;;;16.20;100.00;101427.50;5061782;28;45466;-81
2021/10/25 06:10:25;;;;;;;;;21.75;19.25;;;;;16.10;100.00;101421.22;5044069;28;45763;-81
2021/10/25 06:12:51;;;;;;;;;21.50;21.00;;;;;16.14;100.00;101411.13;5067772;28;45424;-81
2021/10/25 06:15:19;;;;;;;;;29.00;21.75;;;;;16.11;100.00;101398.94;5044275;28;45644;-81
2021/10/25 06:17:57;;;;;;;;;22.75;20.50;;;;;16.13;100.00;101390.78;5061546;28;45286;-81
2021/10/25 06:20:28;;;;;;;;;21.25;16.75;;;;;16.14;100.00;101406.66;5062075;28;45407;-82
2021/10/25 06:22:55;;;;;;;;;21.50;21.50;;;;;16.18;100.00;101408.13;5061625;28;45457;-81
2021/10/25 06:25:22;;;;;;;;;25.00;18.50;;;;;16.19;100.00;101420.47;5061617;28;45392;-81
2021/10/25 06:27:49;;;;;;;;;22.75;22.25;;;;;16.24;100.00;101425.41;5066428;28;45462;-82
2021/10/25 06:30:16;;;;;;;;;31.00;22.50;;;;;16.29;100.00;101425.91;5043397;28;45414;-82
2021/10/25 06:32:41;;;;;;;;;22.75;19.25;;;;;16.33;100.00;101432.66;5043398;28;45481;-82
2021/10/25 06:35:09;;;;;;;;;21.50;18.25;;;;;16.46;100.00;101434.22;5061795;28;45410;-82
2021/10/25 06:38:10;;;;;;;;;23.00;18.75;;;;;16.28;100.00;101422.41;5061304;28;45544;-82
2021/10/25 06:40:28;;;;;;;;;18.25;16.50;;;;;16.01;100.00;101421.94;5056977;28;46779;-82
2021/10/25 06:42:54;;;;;;;;;23.00;18.75;;;;;16.10;100.00;101437.19;5061719;28;45178;-82
2021/10/25 06:45:21;;;;;;;;;21.75;18.50;;;;;16.09;100.00;101454.16;5060140;28;45537;-82
2021/10/25 06:47:48;;;;;;;;;26.50;21.50;;;;;16.29;100.00;101458.75;5042987;28;48364;-82
2021/10/25 06:50:16;;;;;;;;;21.00;20.00;;;;;16.08;100.00;101455.13;5061162;28;45430;-81
2021/10/25 06:52:42;;;;;;;;;25.75;22.00;;;;;16.08;100.00;101452.44;5061093;28;45427;-82
2021/10/25 06:55:08;;;;;;;;;31.50;21.50;;;;;16.11;100.00;101454.03;5060920;28;45347;-82
2021/10/25 06:57:35;;;;;;;;;23.25;21.75;;;;;16.06;100.00;101451.72;5072487;28;45611;-82
2021/10/25 07:00:00;;;;;;;;;28.50;22.25;;;;;16.18;100.00;101455.22;5061005;28;45587;-82
2021/10/25 07:02:27;;;;;;;;;23.50;20.75;;;;;16.21;100.00;101454.97;5060949;28;45178;-82
2021/10/25 07:04:52;;;;;;;;;25.50;21.50;;;;;16.22;100.00;101454.84;5061010;28;45388;-81
2021/10/25 07:07:20;;;;;;;;;28.00;22.25;;;;;16.37;100.00;101458.97;5042552;28;47167;-82
2021/10/25 07:09:46;;;;;;;;;35.50;25.75;;;;;16.31;100.00;101461.25;5060796;28;45302;-82
2021/10/25 07:12:11;;;;;;;;;23.75;19.25;;;;;16.27;100.00;101465.16;5061100;28;45340;-82
2021/10/25 07:14:39;;;;;;;;;24.75;21.75;;;;;16.33;100.00;101459.31;5065793;28;45598;-81
2021/10/25 07:17:18;;;;;;;;;26.00;20.00;;;;;16.43;100.00;101468.28;5040474;28;46434;-82
2021/10/25 07:59:27;;;;;;;;;31.00;21.75;;;;;16.51;100.00;101471.16;5053286;28;45629;-79
2021/10/25 08:09:13;;;;;;;;;26.25;18.25;;;;;16.80;100.00;101512.38;5037737;28;44793;-81
2021/10/25 08:14:13;;;;;;;;;23.25;23.00;;;;;16.83;100.00;101508.59;5071818;28;45230;-80
2021/10/25 08:19:25;;;;;;;;;26.25;20.75;;;;;16.89;100.00;101501.91;5066757;28;45306;-81
2021/10/25 08:21:59;;;;;;;;;30.75;24.50;;;;;17.00;100.00;101493.88;5062723;28;45386;-81
2021/10/25 08:24:27;;;;;;;;;20.25;16.75;;;;;17.02;100.00;101506.13;5048331;28;45304;-81
2021/10/25 08:26:53;;;;;;;;;25.50;22.00;;;;;17.02;100.00;101495.47;5024918;28;45385;-82
2021/10/25 08:29:20;;;;;;;;;31.25;24.75;;;;;17.06;100.00;101488.88;5065361;28;45394;-82
2021/10/25 08:31:55;;;;;;;;;24.75;20.75;;;;;17.12;100.00;101495.50;5042307;28;47459;-82
2021/10/25 08:34:31;;;;;;;;;19.00;17.50;;;;;17.09;100.00;101485.97;5059800;28;45252;-82
2021/10/25 08:39:57;;;;;;;;;23.25;18.75;;;;;17.28;100.00;101489.75;5059761;28;45546;-82
2021/10/25 08:42:28;;;;;;;;;21.25;18.50;;;;;17.29;100.00;101488.78;5041594;28;48102;-82
2021/10/25 08:45:07;;;;;;;;;19.75;19.00;;;;;17.32;100.00;101480.50;5041668;28;45380;-81
2021/10/25 08:47:39;;;;;;;;;26.00;19.00;;;;;17.29;100.00;101478.13;5059355;28;45324;-82
2021/10/25 08:50:08;;;;;;;;;23.25;21.25;;;;;17.32;100.00;101486.69;5041668;28;45375;-81
2021/10/25 08:52:34;;;;;;;;;19.75;19.75;;;;;17.37;100.00;101472.97;5058976;28;46592;-82
2021/10/25 08:55:05;;;;;;;;;19.50;19.50;;;;;17.50;100.00;101486.97;5059710;28;45588;-82
2021/10/25 08:57:32;;;;;;;;;25.50;23.00;;;;;17.48;100.00;101487.09;5053353;28;45337;-81
2021/10/25 09:00:04;;;;;;;;;21.00;18.00;;;;;17.58;100.00;101481.81;5041268;28;45633;-82
2021/10/25 09:02:30;;;;;;;;;25.25;19.00;;;;;17.58;100.00;101479.16;5059459;28;46126;-82
2021/10/25 09:05:01;;;;;;;;;26.25;18.75;;;;;17.59;100.00;101478.16;5059501;28;45351;-82
2021/10/25 09:07:27;;;;;;;;;23.50;21.00;;;;;17.59;100.00;101487.03;5041353;28;45273;-81
2021/10/25 09:09:52;;;;;;;;;29.50;21.50;;;;;17.67;100.00;101483.72;5062029;28;45245;-81
2021/10/25 09:12:18;;;;;;;;;28.00;19.75;;;;;17.73;100.00;101483.22;5063558;28;45462;-82
2021/10/25 09:14:45;;;;;;;;;23.25;22.00;;;;;17.89;100.00;101474.72;5067801;28;45395;-82
2021/10/25 09:17:11;;;;;;;;;26.00;24.25;;;;;17.92;100.00;101469.13;5044775;28;45442;-82
2021/10/25 09:19:39;;;;;;;;;30.00;19.75;;;;;17.99;100.00;101461.41;5044393;28;45656;-82
2021/10/25 09:22:15;;;;;;;;;22.75;19.75;;;;;18.11;100.00;101471.03;5062763;28;45571;-82
2021/10/25 09:24:49;;;;;;;;;23.50;18.50;;;;;18.60;100.00;101460.38;5062638;28;45657;-82
2021/10/25 09:27:15;;;;;;;;;27.25;21.00;;;;;19.21;100.00;101462.81;5066285;28;45427;-82
2021/10/25 09:29:45;;;;;;;;;24.75;18.75;;;;;19.44;100.00;101458.84;5045918;28;45462;-82
2021/10/25 09:32:14;;;;;;;;;20.25;18.00;;;;;19.68;100.00;101457.56;5062821;28;46620;-82
2021/10/25 09:34:49;;;;;;;;;27.75;23.25;;;;;20.37;100.00;101458.03;5044115;28;45882;-82
2021/10/25 09:37:21;;;;;;;;;23.00;20.50;;;;;20.64;100.00;101459.00;5062378;28;45467;-83
2021/10/25 09:40:02;;;;;;;;;25.50;22.00;;;;;21.19;100.00;101446.31;5062598;28;45400;-83
2021/10/25 09:50:54;;;;;;;;;34.50;26.75;;;;;20.61;100.00;101449.41;5062100;28;45304;-83
2021/10/25 09:53:37;;;;;;;;;31.00;24.75;;;;;20.55;100.00;101458.06;5031507;28;47125;-80
2021/10/25 09:56:05;;;;;;;;;26.25;24.50;;;;;20.33;100.00;101445.03;5042128;28;45324;-81
2021/10/25 09:58:46;;;;;;;;;30.75;23.25;;;;;20.30;100.00;101462.28;5055793;28;45349;-82
2021/10/25 10:01:13;;;;;;;;;26.50;24.25;;;;;20.10;100.00;101469.56;5043995;28;45783;-82
2021/10/25 10:03:39;;;;;;;;;28.00;23.50;;;;;19.93;100.00;101459.63;5061832;28;45529;-82
2021/10/25 10:06:04;;;;;;;;;26.00;21.00;;;;;19.81;100.00;101463.44;5043950;28;45467;-82
2021/10/25 10:08:30;;;;;;;;;28.75;20.50;;;;;19.88;100.00;101464.56;5061840;28;45515;-82
2021/10/25 10:10:56;;;;;;;;;24.25;19.50;;;;;19.91;100.00;101460.75;5044282;28;46359;-82
2021/10/25 10:13:26;;;;;;;;;26.75;19.00;;;;;19.92;100.00;101462.44;5066611;28;48148;-82
2021/10/25 10:15:57;;;;;;;;;15.00;11.50;;;;;19.99;100.00;101460.84;5044240;28;45470;-81
2021/10/25 10:18:26;;;;;;;;;21.00;21.00;;;;;20.02;100.00;101458.72;5061968;28;45221;-81
2021/10/25 10:20:57;;;;;;;;;25.75;22.25;;;;;20.17;100.00;101467.97;5061621;28;45139;-82
2021/10/25 10:23:24;;;;;;;;;24.75;23.00;;;;;20.32;100.00;101464.78;5043096;28;47282;-82
2021/10/25 10:25:56;;;;;;;;;29.25;25.00;;;;;20.39;100.00;101468.63;5043518;28;45915;-82
2021/10/25 10:28:38;;;;;;;;;31.50;25.75;;;;;20.40;100.00;101472.97;5067049;28;45435;-82
2021/10/25 10:31:06;;;;;;;;;26.75;22.25;;;;;20.35;100.00;101473.44;5059774;28;45768;-82
2021/10/25 10:33:34;;;;;;;;;25.00;22.75;;;;;20.29;100.00;101483.88;5061648;28;45465;-83
2021/10/25 10:36:10;;;;;;;;;26.25;24.50;;;;;20.34;100.00;101479.78;5043219;28;45284;-82
2021/10/25 10:38:45;;;;;;;;;27.25;23.75;;;;;20.37;100.00;101484.00;5061392;28;45466;-82
2021/10/25 10:41:13;;;;;;;;;31.75;23.25;;;;;20.16;100.00;101479.69;5043183;28;45257;-82
2021/10/25 10:43:39;;;;;;;;;26.00;21.50;;;;;20.07;100.00;101485.94;5061311;28;45375;-82
2021/10/25 10:46:12;;;;;;;;;32.50;24.75;;;;;20.20;100.00;101482.09;5043073;28;45455;-82
2021/10/25 10:48:39;;;;;;;;;30.00;24.00;;;;;20.24;100.00;101494.19;5061395;28;45406;-82
2021/10/25 10:51:11;;;;;;;;;27.50;24.25;;;;;20.32;100.00;101496.97;5061389;28;45292;-82
2021/10/25 10:53:51;;;;;;;;;28.25;23.50;;;;;20.22;100.00;101478.25;5060947;28;45499;-82
2021/10/25 10:56:28;;;;;;;;;28.50;24.50;;;;;20.08;100.00;101482.28;5051417;28;45663;-82
2021/10/25 10:59:07;;;;;;;;;28.50;23.75;;;;;19.96;100.00;101488.78;5062625;28;45152;-82
2021/10/25 11:01:33;;;;;;;;;27.00;22.50;;;;;19.85;100.00;101497.00;5043150;28;45868;-82
2021/10/25 11:04:00;;;;;;;;;21.75;21.75;;;;;19.53;100.00;101493.84;5059569;28;48690;-82
2021/10/25 11:06:31;;;;;;;;;23.25;20.00;;;;;19.31;100.00;101490.44;5061062;28;45257;-82
2021/10/25 11:08:57;;;;;;;;;53.00;41.25;;;;;19.26;100.00;101494.53;5043388;28;45166;-82
2021/10/25 11:11:23;;;;;;;;;29.75;22.50;;;;;19.20;100.00;101484.41;5061441;28;45241;-82
2021/10/25 11:13:51;;;;;;;;;33.25;28.00;;;;;19.22;100.00;101485.91;5049926;28;46198;-82
2021/10/25 11:16:24;;;;;;;;;23.25;17.75;;;;;19.18;100.00;101484.53;5028854;28;45759;-81
2021/10/25 11:18:52;;;;;;;;;20.50;17.25;;;;;19.00;100.00;101475.50;5041785;28;45260;-81
2021/10/25 11:21:26;;;;;;;;;16.00;14.50;;;;;18.90;100.00;101483.53;5023838;28;46075;-81
2021/10/25 11:23:55;;;;;;;;;16.75;15.75;;;;;18.85;100.00;101483.09;5023984;28;47114;-81
2021/10/25 11:26:24;;;;;;;;;13.75;12.00;;;;;18.97;100.00;101473.09;5041489;28;45464;-82
2021/10/25 11:29:08;;;;;;;;;18.50;14.50;;;;;18.99;100.00;101482.69;5063356;28;45413;-82
2021/10/25 11:31:56;;;;;;;;;22.25;15.25;;;;;19.41;100.00;101477.88;5061472;28;45363;-81
2021/10/25 11:34:29;;;;;;;;;24.25;20.25;;;;;19.67;100.00;101479.97;5060211;28;46196;-81
2021/10/25 11:37:16;;;;;;;;;19.25;16.50;;;;;19.96;100.00;101483.44;5060986;28;45711;-81
2021/10/25 11:39:49;;;;;;;;;22.25;19.25;;;;;20.01;100.00;101481.16;5061557;28;45331;-81
2021/10/25 11:42:21;;;;;;;;;16.25;14.00;;;;;20.12;100.00;101477.47;5061398;28;45321;-82
2021/10/25 11:44:50;;;;;;;;;17.00;13.25;;;;;20.12;100.00;101486.31;5061815;28;45536;-82
2021/10/25 11:47:30;;;;;;;;;13.25;11.50;;;;;20.09;100.00;101475.06;5042550;28;45564;-82
2021/10/25 11:50:04;;;;;;;;;18.75;15.00;;;;;20.08;100.00;101484.09;5060675;28;45212;-82
2021/10/25 11:52:37;;;;;;;;;19.25;16.50;;;;;20.05;100.00;101473.66;5060391;28;45309;-81
2021/10/25 11:55:03;;;;;;;;;15.00;12.25;;;;;19.94;100.00;101476.53;5060500;28;46321;-82
2021/10/25 11:57:28;;;;;;;;;19.00;15.00;;;;;19.93;100.00;101481.06;5053675;28;45187;-81
2021/10/25 11:59:58;;;;;;;;;18.50;15.25;;;;;19.84;100.00;101475.72;5060428;28;45336;-82
2021/10/25 12:02:23;;;;;;;;;26.25;21.75;;;;;19.78;100.00;101469.94;5060286;28;45276;-81
2021/10/25 12:04:49;;;;;;;;;19.00;16.75;;;;;19.86;100.00;101474.56;5041940;28;47337;-83
2021/10/25 12:07:15;;;;;;;;;12.00;12.00;;;;;19.81;100.00;101471.50;5042246;28;45861;-83
2021/10/25 12:09:41;;;;;;;;;20.00;16.50;;;;;19.80;100.00;101469.81;5060344;28;45422;-82
2021/10/25 12:12:13;;;;;;;;;14.75;11.00;;;;;19.77;100.00;101470.09;5061041;28;45352;-82
2021/10/25 12:14:42;;;;;;;;;14.00;13.00;;;;;19.81;100.00;101471.50;5056713;28;45414;-81
2021/10/25 12:17:10;;;;;;;;;16.25;14.00;;;;;19.83;100.00;101463.31;5060006;28;45239;-82
2021/10/25 12:19:37;;;;;;;;;19.75;16.50;;;;;19.92;100.00;101457.91;5060636;28;45245;-82
2021/10/25 12:22:11;;;;;;;;;17.00;16.00;;;;;20.06;100.00;101462.78;5060877;28;45525;-81
2021/10/25 12:24:42;;;;;;;;;12.50;11.00;;;;;20.18;100.00;101456.25;5060438;28;46447;-82
2021/10/25 12:27:12;;;;;;;;;18.50;15.50;;;;;20.32;100.00;101462.09;5063000;28;45255;-82
2021/10/25 12:29:37;;;;;;;;;17.25;13.50;;;;;20.33;100.00;101453.06;5061754;28;45224;-82
2021/10/25 12:32:09;;;;;;;;;21.00;17.00;;;;;20.43;100.00;101446.69;5041936;28;45629;-82
2021/10/25 12:34:56;;;;;;;;;20.75;14.25;;;;;20.54;100.00;101449.16;5059632;28;45536;-81
2021/10/25 12:37:29;;;;;;;;;13.50;13.00;;;;;20.36;100.00;101434.88;5059620;28;45511;-81
2021/10/25 12:39:56;;;;;;;;;13.75;13.00;;;;;20.46;100.00;101429.47;5059942;28;45188;-81
2021/10/25 12:42:24;;;;;;;;;15.75;14.00;;;;;20.54;100.00;101424.19;5060220;28;45598;-81
2021/10/25 12:44:53;;;;;;;;;16.00;12.50;;;;;20.67;100.00;101416.56;5063791;28;45497;-81
2021/10/25 12:47:23;;;;;;;;;12.25;12.25;;;;;20.79;100.00;101423.41;5063332;28;45166;-81
2021/10/25 12:49:50;;;;;;;;;14.00;12.00;;;;;21.03;100.00;101428.16;5063693;28;45418;-81